sensor_id;sensor_type;location;lat;lon;timestamp;temperature;humidity
20337;DHT22;10326;53.660;10.200;2023-05-10T00:01:25;18.00;41.40
20337;DHT22;10326;53.660;10.200;2023-05-10T00:03:53;17.90;41.30
20337;DHT22;10326;53.660;10.200;2023-05-10T00:06:20;17.90;41.40
20337;DHT22;10326;53.660;10.200;2023-05-10T00:08:47;17.90;41.40
20337;DHT22;10326;53.660;10.200;2023-05-10T00:11:16;17.90;41.50
20337;DHT22;10326;53.660;10.200;2023-05-10T00:13:43;17.80;41.60
20337;DHT22;10326;53.660;10.200;2023-05-10T00:16:11;17.80;41.60
20337;DHT22;10326;53.660;10.200;2023-05-10T00:18:38;17.80;41.60
20337;DHT22;10326;53.660;10.200;2023-05-10T00:21:06;17.80;41.60
20337;DHT22;10326;53.660;10.200;2023-05-10T00:23:33;17.80;41.70
20337;DHT22;10326;53.660;10.200;2023-05-10T00:26:00;17.70;41.70
20337;DHT22;10326;53.660;10.200;2023-05-10T00:28:30;17.70;41.80
20337;DHT22;10326;53.660;10.200;2023-05-10T00:30:57;17.70;42.00
20337;DHT22;10326;53.660;10.200;2023-05-10T00:33:24;17.70;41.90
20337;DHT22;10326;53.660;10.200;2023-05-10T00:35:52;17.70;42.00
20337;DHT22;10326;53.660;10.200;2023-05-10T00:38:19;17.60;42.00
20337;DHT22;10326;53.660;10.200;2023-05-10T00:40:46;17.60;42.00
20337;DHT22;10326;53.660;10.200;2023-05-10T00:43:22;17.60;42.10
20337;DHT22;10326;53.660;10.200;2023-05-10T00:45:51;17.60;42.10
20337;DHT22;10326;53.660;10.200;2023-05-10T00:48:18;17.60;42.20
20337;DHT22;10326;53.660;10.200;2023-05-10T00:50:46;17.60;42.20
20337;DHT22;10326;53.660;10.200;2023-05-10T00:53:14;17.50;42.20
20337;DHT22;10326;53.660;10.200;2023-05-10T00:55:43;17.50;42.30
20337;DHT22;10326;53.660;10.200;2023-05-10T00:58:10;17.50;42.30
20337;DHT22;10326;53.660;10.200;2023-05-10T01:00:38;17.50;42.50
20337;DHT22;10326;53.660;10.200;2023-05-10T01:03:11;17.40;42.40
20337;DHT22;10326;53.660;10.200;2023-05-10T01:05:38;17.40;42.60
20337;DHT22;10326;53.660;10.200;2023-05-10T01:08:06;17.40;42.50
20337;DHT22;10326;53.660;10.200;2023-05-10T01:10:34;17.30;42.50
20337;DHT22;10326;53.660;10.200;2023-05-10T01:13:02;17.30;42.50
20337;DHT22;10326;53.660;10.200;2023-05-10T01:15:30;17.30;42.70
20337;DHT22;10326;53.660;10.200;2023-05-10T01:17:58;17.30;42.70
20337;DHT22;10326;53.660;10.200;2023-05-10T01:20:32;17.20;42.70
20337;DHT22;10326;53.660;10.200;2023-05-10T01:23:32;17.20;42.90
20337;DHT22;10326;53.660;10.200;2023-05-10T01:26:28;17.20;42.90
20337;DHT22;10326;53.660;10.200;2023-05-10T01:29:18;17.20;43.00
20337;DHT22;10326;53.660;10.200;2023-05-10T01:32:16;17.10;43.20
20337;DHT22;10326;53.660;10.200;2023-05-10T01:35:03;17.10;43.10
20337;DHT22;10326;53.660;10.200;2023-05-10T01:37:41;17.00;43.00
20337;DHT22;10326;53.660;10.200;2023-05-10T01:40:19;17.00;43.30
20337;DHT22;10326;53.660;10.200;2023-05-10T01:42:54;17.00;43.20
20337;DHT22;10326;53.660;10.200;2023-05-10T01:45:28;17.00;43.20
20337;DHT22;10326;53.660;10.200;2023-05-10T01:48:06;16.90;43.40
20337;DHT22;10326;53.660;10.200;2023-05-10T01:50:36;16.90;43.50
20337;DHT22;10326;53.660;10.200;2023-05-10T01:53:07;16.90;43.40
20337;DHT22;10326;53.660;10.200;2023-05-10T01:55:47;16.90;43.40
20337;DHT22;10326;53.660;10.200;2023-05-10T01:58:20;16.90;43.70
20337;DHT22;10326;53.660;10.200;2023-05-10T02:00:52;16.80;43.60
20337;DHT22;10326;53.660;10.200;2023-05-10T02:03:24;16.80;43.70
20337;DHT22;10326;53.660;10.200;2023-05-10T02:05:53;16.80;43.80
20337;DHT22;10326;53.660;10.200;2023-05-10T02:08:22;16.80;43.80
20337;DHT22;10326;53.660;10.200;2023-05-10T02:10:52;16.70;43.80
20337;DHT22;10326;53.660;10.200;2023-05-10T02:13:24;16.70;43.90
20337;DHT22;10326;53.660;10.200;2023-05-10T02:15:53;16.70;44.00
20337;DHT22;10326;53.660;10.200;2023-05-10T02:18:24;16.70;44.10
20337;DHT22;10326;53.660;10.200;2023-05-10T02:20:54;16.60;44.10
20337;DHT22;10326;53.660;10.200;2023-05-10T02:23:22;16.60;44.10
20337;DHT22;10326;53.660;10.200;2023-05-10T02:25:50;16.60;44.10
20337;DHT22;10326;53.660;10.200;2023-05-10T02:28:21;16.60;44.10
20337;DHT22;10326;53.660;10.200;2023-05-10T02:30:49;16.50;44.30
20337;DHT22;10326;53.660;10.200;2023-05-10T02:33:18;16.50;44.20
20337;DHT22;10326;53.660;10.200;2023-05-10T02:35:49;16.50;44.30
20337;DHT22;10326;53.660;10.200;2023-05-10T02:38:19;16.50;44.50
20337;DHT22;10326;53.660;10.200;2023-05-10T02:40:48;16.40;44.50
20337;DHT22;10326;53.660;10.200;2023-05-10T02:43:17;16.40;44.50
20337;DHT22;10326;53.660;10.200;2023-05-10T02:45:47;16.40;44.70
20337;DHT22;10326;53.660;10.200;2023-05-10T02:48:15;16.40;44.80
20337;DHT22;10326;53.660;10.200;2023-05-10T02:50:44;16.30;44.70
20337;DHT22;10326;53.660;10.200;2023-05-10T02:53:15;16.40;44.90
20337;DHT22;10326;53.660;10.200;2023-05-10T02:55:50;16.30;45.00
20337;DHT22;10326;53.660;10.200;2023-05-10T02:58:19;16.30;44.90
20337;DHT22;10326;53.660;10.200;2023-05-10T03:00:46;16.30;44.90
20337;DHT22;10326;53.660;10.200;2023-05-10T03:03:13;16.30;45.10
20337;DHT22;10326;53.660;10.200;2023-05-10T03:05:40;16.20;45.00
20337;DHT22;10326;53.660;10.200;2023-05-10T03:08:08;16.20;45.10
20337;DHT22;10326;53.660;10.200;2023-05-10T03:10:44;16.20;45.20
20337;DHT22;10326;53.660;10.200;2023-05-10T03:13:31;16.20;45.60
20337;DHT22;10326;53.660;10.200;2023-05-10T03:16:07;16.10;45.40
20337;DHT22;10326;53.660;10.200;2023-05-10T03:18:42;16.10;45.60
20337;DHT22;10326;53.660;10.200;2023-05-10T03:21:12;16.10;45.50
20337;DHT22;10326;53.660;10.200;2023-05-10T03:23:43;16.10;45.50
20337;DHT22;10326;53.660;10.200;2023-05-10T03:26:24;16.10;45.60
20337;DHT22;10326;53.660;10.200;2023-05-10T03:29:02;16.10;45.70
20337;DHT22;10326;53.660;10.200;2023-05-10T03:31:32;16.00;45.50
20337;DHT22;10326;53.660;10.200;2023-05-10T03:34:00;16.00;45.60
20337;DHT22;10326;53.660;10.200;2023-05-10T03:36:27;16.00;45.70
20337;DHT22;10326;53.660;10.200;2023-05-10T03:38:55;16.00;45.70
20337;DHT22;10326;53.660;10.200;2023-05-10T03:41:23;15.90;45.80
20337;DHT22;10326;53.660;10.200;2023-05-10T03:43:51;15.90;45.90
20337;DHT22;10326;53.660;10.200;2023-05-10T03:46:19;15.90;45.90
20337;DHT22;10326;53.660;10.200;2023-05-10T03:48:46;15.90;46.00
20337;DHT22;10326;53.660;10.200;2023-05-10T03:51:14;15.90;46.00
20337;DHT22;10326;53.660;10.200;2023-05-10T03:53:41;15.90;46.10
20337;DHT22;10326;53.660;10.200;2023-05-10T03:56:08;15.90;46.20
20337;DHT22;10326;53.660;10.200;2023-05-10T03:58:37;15.80;46.10
20337;DHT22;10326;53.660;10.200;2023-05-10T04:01:04;15.80;46.30
20337;DHT22;10326;53.660;10.200;2023-05-10T04:03:31;15.80;46.40
20337;DHT22;10326;53.660;10.200;2023-05-10T04:06:00;15.80;46.40
20337;DHT22;10326;53.660;10.200;2023-05-10T04:08:28;15.80;46.40
20337;DHT22;10326;53.660;10.200;2023-05-10T04:11:04;15.80;46.40
20337;DHT22;10326;53.660;10.200;2023-05-10T04:13:33;15.80;46.80
20337;DHT22;10326;53.660;10.200;2023-05-10T04:16:02;15.80;46.60
20337;DHT22;10326;53.660;10.200;2023-05-10T04:18:29;15.80;46.70
20337;DHT22;10326;53.660;10.200;2023-05-10T04:20:57;15.80;46.70
20337;DHT22;10326;53.660;10.200;2023-05-10T04:23:24;15.80;46.80
20337;DHT22;10326;53.660;10.200;2023-05-10T04:25:52;15.80;46.90
20337;DHT22;10326;53.660;10.200;2023-05-10T04:28:19;15.80;47.00
20337;DHT22;10326;53.660;10.200;2023-05-10T04:30:47;15.80;46.90
20337;DHT22;10326;53.660;10.200;2023-05-10T04:33:16;15.80;47.00
20337;DHT22;10326;53.660;10.200;2023-05-10T04:35:43;15.80;47.10
20337;DHT22;10326;53.660;10.200;2023-05-10T04:38:10;15.80;47.10
20337;DHT22;10326;53.660;10.200;2023-05-10T04:40:38;15.80;47.10
20337;DHT22;10326;53.660;10.200;2023-05-10T04:43:05;15.80;47.30
20337;DHT22;10326;53.660;10.200;2023-05-10T04:45:32;15.80;47.20
20337;DHT22;10326;53.660;10.200;2023-05-10T04:47:59;15.80;47.30
20337;DHT22;10326;53.660;10.200;2023-05-10T04:50:28;15.80;47.30
20337;DHT22;10326;53.660;10.200;2023-05-10T04:52:55;15.80;47.50
20337;DHT22;10326;53.660;10.200;2023-05-10T04:55:22;15.80;47.40
20337;DHT22;10326;53.660;10.200;2023-05-10T04:57:51;15.80;47.40
20337;DHT22;10326;53.660;10.200;2023-05-10T05:00:19;15.80;47.50
20337;DHT22;10326;53.660;10.200;2023-05-10T05:02:46;15.80;47.50
20337;DHT22;10326;53.660;10.200;2023-05-10T05:05:13;15.80;47.50
20337;DHT22;10326;53.660;10.200;2023-05-10T05:07:43;15.80;47.70
20337;DHT22;10326;53.660;10.200;2023-05-10T05:10:10;15.80;47.80
20337;DHT22;10326;53.660;10.200;2023-05-10T05:12:39;15.90;47.80
20337;DHT22;10326;53.660;10.200;2023-05-10T05:15:07;15.90;47.90
20337;DHT22;10326;53.660;10.200;2023-05-10T05:17:35;15.90;47.90
20337;DHT22;10326;53.660;10.200;2023-05-10T05:20:03;15.90;47.90
20337;DHT22;10326;53.660;10.200;2023-05-10T05:22:31;15.90;47.90
20337;DHT22;10326;53.660;10.200;2023-05-10T05:25:00;15.90;48.10
20337;DHT22;10326;53.660;10.200;2023-05-10T05:27:28;15.90;48.10
20337;DHT22;10326;53.660;10.200;2023-05-10T05:29:56;16.00;48.10
20337;DHT22;10326;53.660;10.200;2023-05-10T05:32:24;16.00;48.60
20337;DHT22;10326;53.660;10.200;2023-05-10T05:34:52;16.00;48.40
20337;DHT22;10326;53.660;10.200;2023-05-10T05:37:20;16.00;48.30
20337;DHT22;10326;53.660;10.200;2023-05-10T05:39:48;16.10;48.50
20337;DHT22;10326;53.660;10.200;2023-05-10T05:42:17;16.10;48.60
20337;DHT22;10326;53.660;10.200;2023-05-10T05:44:44;16.10;48.60
20337;DHT22;10326;53.660;10.200;2023-05-10T05:47:11;16.20;48.50
20337;DHT22;10326;53.660;10.200;2023-05-10T05:49:39;16.20;48.60
20337;DHT22;10326;53.660;10.200;2023-05-10T05:52:06;16.20;48.60
20337;DHT22;10326;53.660;10.200;2023-05-10T05:54:33;16.30;48.60
20337;DHT22;10326;53.660;10.200;2023-05-10T05:57:01;16.30;48.60
20337;DHT22;10326;53.660;10.200;2023-05-10T05:59:29;16.30;48.50
20337;DHT22;10326;53.660;10.200;2023-05-10T06:01:56;16.30;48.70
20337;DHT22;10326;53.660;10.200;2023-05-10T06:04:24;16.30;48.70
20337;DHT22;10326;53.660;10.200;2023-05-10T06:06:51;16.40;48.70
20337;DHT22;10326;53.660;10.200;2023-05-10T06:09:18;16.40;48.80
20337;DHT22;10326;53.660;10.200;2023-05-10T06:11:45;16.40;48.80
20337;DHT22;10326;53.660;10.200;2023-05-10T06:14:14;16.50;48.90
20337;DHT22;10326;53.660;10.200;2023-05-10T06:16:42;16.50;49.00
20337;DHT22;10326;53.660;10.200;2023-05-10T06:19:09;16.50;49.10
20337;DHT22;10326;53.660;10.200;2023-05-10T06:21:37;16.60;49.20
20337;DHT22;10326;53.660;10.200;2023-05-10T06:24:05;16.60;48.90
20337;DHT22;10326;53.660;10.200;2023-05-10T06:26:33;16.60;49.00
20337;DHT22;10326;53.660;10.200;2023-05-10T06:29:00;16.70;49.00
20337;DHT22;10326;53.660;10.200;2023-05-10T06:31:28;16.70;49.10
20337;DHT22;10326;53.660;10.200;2023-05-10T06:33:57;16.70;49.10
20337;DHT22;10326;53.660;10.200;2023-05-10T06:36:24;16.70;49.20
20337;DHT22;10326;53.660;10.200;2023-05-10T06:38:52;16.80;49.40
20337;DHT22;10326;53.660;10.200;2023-05-10T06:41:20;16.80;49.30
20337;DHT22;10326;53.660;10.200;2023-05-10T06:43:47;16.90;49.30
20337;DHT22;10326;53.660;10.200;2023-05-10T06:46:14;16.90;49.30
20337;DHT22;10326;53.660;10.200;2023-05-10T06:48:43;17.00;49.30
20337;DHT22;10326;53.660;10.200;2023-05-10T06:51:11;17.00;49.40
20337;DHT22;10326;53.660;10.200;2023-05-10T06:53:39;17.00;49.50
20337;DHT22;10326;53.660;10.200;2023-05-10T06:56:06;17.10;49.60
20337;DHT22;10326;53.660;10.200;2023-05-10T06:58:33;17.10;49.50
20337;DHT22;10326;53.660;10.200;2023-05-10T07:01:03;17.20;49.60
20337;DHT22;10326;53.660;10.200;2023-05-10T07:03:32;17.20;49.80
20337;DHT22;10326;53.660;10.200;2023-05-10T07:06:00;17.30;49.80
20337;DHT22;10326;53.660;10.200;2023-05-10T07:08:31;17.40;49.80
20337;DHT22;10326;53.660;10.200;2023-05-10T07:11:02;17.40;49.80
20337;DHT22;10326;53.660;10.200;2023-05-10T07:13:31;17.50;49.70
20337;DHT22;10326;53.660;10.200;2023-05-10T07:15:59;17.50;49.60
20337;DHT22;10326;53.660;10.200;2023-05-10T07:18:29;17.60;49.90
20337;DHT22;10326;53.660;10.200;2023-05-10T07:20:57;17.60;49.80
20337;DHT22;10326;53.660;10.200;2023-05-10T07:23:25;17.70;49.80
20337;DHT22;10326;53.660;10.200;2023-05-10T07:25:53;17.80;49.80
20337;DHT22;10326;53.660;10.200;2023-05-10T07:28:23;17.80;49.70
20337;DHT22;10326;53.660;10.200;2023-05-10T07:30:50;17.90;49.60
20337;DHT22;10326;53.660;10.200;2023-05-10T07:33:18;17.90;49.60
20337;DHT22;10326;53.660;10.200;2023-05-10T07:35:45;18.00;49.50
20337;DHT22;10326;53.660;10.200;2023-05-10T07:38:12;18.00;49.50
20337;DHT22;10326;53.660;10.200;2023-05-10T07:40:40;18.10;49.60
20337;DHT22;10326;53.660;10.200;2023-05-10T07:43:08;18.10;49.90
20337;DHT22;10326;53.660;10.200;2023-05-10T07:45:37;18.20;49.90
20337;DHT22;10326;53.660;10.200;2023-05-10T07:48:05;18.20;50.00
20337;DHT22;10326;53.660;10.200;2023-05-10T07:50:32;18.30;50.00
20337;DHT22;10326;53.660;10.200;2023-05-10T07:52:59;18.30;50.00
20337;DHT22;10326;53.660;10.200;2023-05-10T07:55:26;18.40;49.80
20337;DHT22;10326;53.660;10.200;2023-05-10T07:57:53;18.40;49.80
20337;DHT22;10326;53.660;10.200;2023-05-10T08:00:22;18.50;50.00
20337;DHT22;10326;53.660;10.200;2023-05-10T08:02:49;18.50;50.10
20337;DHT22;10326;53.660;10.200;2023-05-10T08:05:16;18.60;50.30
20337;DHT22;10326;53.660;10.200;2023-05-10T08:07:44;18.60;50.40
20337;DHT22;10326;53.660;10.200;2023-05-10T08:10:11;18.70;50.40
20337;DHT22;10326;53.660;10.200;2023-05-10T08:12:38;18.70;50.20
20337;DHT22;10326;53.660;10.200;2023-05-10T08:15:06;18.80;50.20
20337;DHT22;10326;53.660;10.200;2023-05-10T08:17:35;18.80;49.90
20337;DHT22;10326;53.660;10.200;2023-05-10T08:20:03;18.90;50.00
20337;DHT22;10326;53.660;10.200;2023-05-10T08:22:31;18.90;49.80
20337;DHT22;10326;53.660;10.200;2023-05-10T08:24:58;19.00;50.00
20337;DHT22;10326;53.660;10.200;2023-05-10T08:27:26;19.00;50.30
20337;DHT22;10326;53.660;10.200;2023-05-10T08:29:53;19.10;50.10
20337;DHT22;10326;53.660;10.200;2023-05-10T08:32:20;19.10;50.20
20337;DHT22;10326;53.660;10.200;2023-05-10T08:34:48;19.10;50.10
20337;DHT22;10326;53.660;10.200;2023-05-10T08:37:15;19.10;50.40
20337;DHT22;10326;53.660;10.200;2023-05-10T08:39:44;19.20;50.20
20337;DHT22;10326;53.660;10.200;2023-05-10T08:42:16;19.20;50.10
20337;DHT22;10326;53.660;10.200;2023-05-10T08:44:47;19.30;50.40
20337;DHT22;10326;53.660;10.200;2023-05-10T08:47:16;19.30;50.50
20337;DHT22;10326;53.660;10.200;2023-05-10T08:49:48;19.40;50.40
20337;DHT22;10326;53.660;10.200;2023-05-10T08:52:17;19.40;50.20
20337;DHT22;10326;53.660;10.200;2023-05-10T08:54:44;19.50;50.30
20337;DHT22;10326;53.660;10.200;2023-05-10T08:57:12;19.50;50.40
20337;DHT22;10326;53.660;10.200;2023-05-10T08:59:40;19.50;50.40
20337;DHT22;10326;53.660;10.200;2023-05-10T09:02:08;19.60;50.30
20337;DHT22;10326;53.660;10.200;2023-05-10T09:04:38;19.60;50.40
20337;DHT22;10326;53.660;10.200;2023-05-10T09:07:07;19.70;50.70
20337;DHT22;10326;53.660;10.200;2023-05-10T09:09:35;19.70;50.40
20337;DHT22;10326;53.660;10.200;2023-05-10T09:12:02;19.80;50.40
20337;DHT22;10326;53.660;10.200;2023-05-10T09:14:30;19.80;50.10
20337;DHT22;10326;53.660;10.200;2023-05-10T09:17:01;19.90;50.50
20337;DHT22;10326;53.660;10.200;2023-05-10T09:19:28;19.90;50.40
20337;DHT22;10326;53.660;10.200;2023-05-10T09:21:55;20.00;50.40
20337;DHT22;10326;53.660;10.200;2023-05-10T09:24:26;20.00;50.40
20337;DHT22;10326;53.660;10.200;2023-05-10T09:26:53;20.10;50.30
20337;DHT22;10326;53.660;10.200;2023-05-10T09:29:23;20.10;50.30
20337;DHT22;10326;53.660;10.200;2023-05-10T09:31:51;20.20;50.20
20337;DHT22;10326;53.660;10.200;2023-05-10T09:34:29;20.20;50.10
20337;DHT22;10326;53.660;10.200;2023-05-10T09:36:59;20.20;49.90
20337;DHT22;10326;53.660;10.200;2023-05-10T09:39:31;20.20;50.00
20337;DHT22;10326;53.660;10.200;2023-05-10T09:41:59;20.20;49.90
20337;DHT22;10326;53.660;10.200;2023-05-10T09:44:29;20.20;50.20
20337;DHT22;10326;53.660;10.200;2023-05-10T09:46:57;20.20;50.00
20337;DHT22;10326;53.660;10.200;2023-05-10T09:49:24;20.20;49.80
20337;DHT22;10326;53.660;10.200;2023-05-10T09:52:00;20.20;50.40
20337;DHT22;10326;53.660;10.200;2023-05-10T09:54:30;20.20;49.70
20337;DHT22;10326;53.660;10.200;2023-05-10T09:56:58;20.20;50.00
20337;DHT22;10326;53.660;10.200;2023-05-10T09:59:27;20.20;50.00
20337;DHT22;10326;53.660;10.200;2023-05-10T10:01:57;20.20;50.10
20337;DHT22;10326;53.660;10.200;2023-05-10T10:04:25;20.20;50.30
20337;DHT22;10326;53.660;10.200;2023-05-10T10:07:00;20.30;50.40
20337;DHT22;10326;53.660;10.200;2023-05-10T10:09:28;20.30;50.20
20337;DHT22;10326;53.660;10.200;2023-05-10T10:11:57;20.30;50.10
20337;DHT22;10326;53.660;10.200;2023-05-10T10:14:25;20.20;50.20
20337;DHT22;10326;53.660;10.200;2023-05-10T10:16:53;20.20;50.20
20337;DHT22;10326;53.660;10.200;2023-05-10T10:19:21;20.20;50.20
20337;DHT22;10326;53.660;10.200;2023-05-10T10:21:49;20.20;50.10
20337;DHT22;10326;53.660;10.200;2023-05-10T10:24:17;20.20;50.20
20337;DHT22;10326;53.660;10.200;2023-05-10T10:26:44;20.10;50.30
20337;DHT22;10326;53.660;10.200;2023-05-10T10:29:21;20.00;50.20
20337;DHT22;10326;53.660;10.200;2023-05-10T10:31:57;20.00;50.50
20337;DHT22;10326;53.660;10.200;2023-05-10T10:34:33;19.90;50.60
20337;DHT22;10326;53.660;10.200;2023-05-10T10:37:04;19.90;50.70
20337;DHT22;10326;53.660;10.200;2023-05-10T10:39:32;19.80;50.70
20337;DHT22;10326;53.660;10.200;2023-05-10T10:42:04;19.70;50.70
20337;DHT22;10326;53.660;10.200;2023-05-10T10:44:36;19.70;51.00
20337;DHT22;10326;53.660;10.200;2023-05-10T10:47:21;19.70;51.10
20337;DHT22;10326;53.660;10.200;2023-05-10T10:50:04;19.60;51.50
20337;DHT22;10326;53.660;10.200;2023-05-10T10:52:33;19.60;52.00
20337;DHT22;10326;53.660;10.200;2023-05-10T10:55:03;19.60;52.10
20337;DHT22;10326;53.660;10.200;2023-05-10T10:57:33;19.50;52.70
20337;DHT22;10326;53.660;10.200;2023-05-10T11:00:25;19.50;52.90
20337;DHT22;10326;53.660;10.200;2023-05-10T11:02:56;19.40;53.80
20337;DHT22;10326;53.660;10.200;2023-05-10T11:05:40;19.40;53.70
20337;DHT22;10326;53.660;10.200;2023-05-10T11:08:17;19.30;54.50
20337;DHT22;10326;53.660;10.200;2023-05-10T11:11:04;19.20;54.30
20337;DHT22;10326;53.660;10.200;2023-05-10T11:13:38;19.10;54.80
20337;DHT22;10326;53.660;10.200;2023-05-10T11:16:14;19.00;54.90
20337;DHT22;10326;53.660;10.200;2023-05-10T11:18:59;19.00;55.30
20337;DHT22;10326;53.660;10.200;2023-05-10T11:21:29;18.90;55.50
20337;DHT22;10326;53.660;10.200;2023-05-10T11:23:58;18.80;55.10
20337;DHT22;10326;53.660;10.200;2023-05-10T11:26:30;18.70;55.50
20337;DHT22;10326;53.660;10.200;2023-05-10T11:28:58;18.70;56.10
20337;DHT22;10326;53.660;10.200;2023-05-10T11:31:29;18.60;56.10
20337;DHT22;10326;53.660;10.200;2023-05-10T11:33:58;18.60;56.60
20337;DHT22;10326;53.660;10.200;2023-05-10T11:36:28;18.50;57.00
20337;DHT22;10326;53.660;10.200;2023-05-10T11:38:57;18.50;57.10
20337;DHT22;10326;53.660;10.200;2023-05-10T11:41:25;18.50;57.30
20337;DHT22;10326;53.660;10.200;2023-05-10T11:43:55;18.50;57.70
20337;DHT22;10326;53.660;10.200;2023-05-10T11:46:24;18.50;58.00
20337;DHT22;10326;53.660;10.200;2023-05-10T11:48:55;18.60;58.40
20337;DHT22;10326;53.660;10.200;2023-05-10T11:51:26;18.60;59.10
20337;DHT22;10326;53.660;10.200;2023-05-10T11:53:54;18.60;59.20
20337;DHT22;10326;53.660;10.200;2023-05-10T11:56:23;18.70;59.70
20337;DHT22;10326;53.660;10.200;2023-05-10T11:58:55;18.70;59.60
20337;DHT22;10326;53.660;10.200;2023-05-10T12:01:25;18.80;59.80
20337;DHT22;10326;53.660;10.200;2023-05-10T12:03:56;18.80;60.00
20337;DHT22;10326;53.660;10.200;2023-05-10T12:06:27;18.80;61.00
20337;DHT22;10326;53.660;10.200;2023-05-10T12:08:57;18.90;60.90
20337;DHT22;10326;53.660;10.200;2023-05-10T12:11:25;18.90;61.20
20337;DHT22;10326;53.660;10.200;2023-05-10T12:13:54;19.00;61.80
20337;DHT22;10326;53.660;10.200;2023-05-10T12:16:24;19.00;61.80
20337;DHT22;10326;53.660;10.200;2023-05-10T12:18:55;19.00;62.20
20337;DHT22;10326;53.660;10.200;2023-05-10T12:21:25;19.10;62.30
20337;DHT22;10326;53.660;10.200;2023-05-10T12:23:58;19.10;62.70
20337;DHT22;10326;53.660;10.200;2023-05-10T12:26:28;19.10;62.70
20337;DHT22;10326;53.660;10.200;2023-05-10T12:29:11;19.20;62.90
20337;DHT22;10326;53.660;10.200;2023-05-10T12:31:51;19.20;63.70
20337;DHT22;10326;53.660;10.200;2023-05-10T12:34:25;19.20;63.30
20337;DHT22;10326;53.660;10.200;2023-05-10T12:36:53;19.20;63.50
20337;DHT22;10326;53.660;10.200;2023-05-10T12:39:20;19.20;63.00
20337;DHT22;10326;53.660;10.200;2023-05-10T12:41:47;19.20;63.10
20337;DHT22;10326;53.660;10.200;2023-05-10T12:44:14;19.20;63.20
20337;DHT22;10326;53.660;10.200;2023-05-10T12:46:42;19.20;63.30
20337;DHT22;10326;53.660;10.200;2023-05-10T12:49:09;19.20;63.30
20337;DHT22;10326;53.660;10.200;2023-05-10T12:51:38;19.20;63.20
20337;DHT22;10326;53.660;10.200;2023-05-10T12:54:05;19.10;64.10
20337;DHT22;10326;53.660;10.200;2023-05-10T12:56:32;19.10;63.50
20337;DHT22;10326;53.660;10.200;2023-05-10T12:58:59;19.10;63.40
20337;DHT22;10326;53.660;10.200;2023-05-10T13:01:27;19.10;63.60
20337;DHT22;10326;53.660;10.200;2023-05-10T13:03:54;19.00;63.80
20337;DHT22;10326;53.660;10.200;2023-05-10T13:06:21;19.00;64.10
20337;DHT22;10326;53.660;10.200;2023-05-10T13:08:50;18.90;64.20
20337;DHT22;10326;53.660;10.200;2023-05-10T13:11:17;18.90;64.80
20337;DHT22;10326;53.660;10.200;2023-05-10T13:13:47;18.80;65.00
20337;DHT22;10326;53.660;10.200;2023-05-10T13:16:14;18.80;65.50
20337;DHT22;10326;53.660;10.200;2023-05-10T13:18:41;18.80;65.70
20337;DHT22;10326;53.660;10.200;2023-05-10T13:21:09;18.80;66.10
20337;DHT22;10326;53.660;10.200;2023-05-10T13:23:36;18.90;67.00
20337;DHT22;10326;53.660;10.200;2023-05-10T13:26:05;18.90;67.60
20337;DHT22;10326;53.660;10.200;2023-05-10T13:28:32;19.00;68.20
20337;DHT22;10326;53.660;10.200;2023-05-10T13:30:59;19.00;67.80
20337;DHT22;10326;53.660;10.200;2023-05-10T13:33:26;19.10;68.20
20337;DHT22;10326;53.660;10.200;2023-05-10T13:35:54;19.10;68.20
20337;DHT22;10326;53.660;10.200;2023-05-10T13:38:23;19.20;68.40
20337;DHT22;10326;53.660;10.200;2023-05-10T13:40:50;19.20;68.90
20337;DHT22;10326;53.660;10.200;2023-05-10T13:43:20;19.30;68.50
20337;DHT22;10326;53.660;10.200;2023-05-10T13:45:48;19.30;68.80
20337;DHT22;10326;53.660;10.200;2023-05-10T13:48:15;19.40;69.20
20337;DHT22;10326;53.660;10.200;2023-05-10T13:50:43;19.40;69.60
20337;DHT22;10326;53.660;10.200;2023-05-10T13:53:10;19.50;69.70
20337;DHT22;10326;53.660;10.200;2023-05-10T13:55:38;19.50;69.50
20337;DHT22;10326;53.660;10.200;2023-05-10T13:58:05;19.60;69.90
20337;DHT22;10326;53.660;10.200;2023-05-10T14:00:34;19.60;70.00
20337;DHT22;10326;53.660;10.200;2023-05-10T14:03:01;19.70;70.10
20337;DHT22;10326;53.660;10.200;2023-05-10T14:05:30;19.70;69.90
20337;DHT22;10326;53.660;10.200;2023-05-10T14:07:57;19.80;70.00
20337;DHT22;10326;53.660;10.200;2023-05-10T14:10:24;19.80;70.20
20337;DHT22;10326;53.660;10.200;2023-05-10T14:12:51;19.90;70.30
20337;DHT22;10326;53.660;10.200;2023-05-10T14:15:19;19.90;70.50
20337;DHT22;10326;53.660;10.200;2023-05-10T14:17:47;20.00;70.80
20337;DHT22;10326;53.660;10.200;2023-05-10T14:20:16;20.10;71.10
20337;DHT22;10326;53.660;10.200;2023-05-10T14:22:43;20.10;71.50
20337;DHT22;10326;53.660;10.200;2023-05-10T14:25:10;20.20;71.40
20337;DHT22;10326;53.660;10.200;2023-05-10T14:27:38;20.30;70.80
20337;DHT22;10326;53.660;10.200;2023-05-10T14:30:06;20.40;70.70
20337;DHT22;10326;53.660;10.200;2023-05-10T14:32:34;20.40;70.50
20337;DHT22;10326;53.660;10.200;2023-05-10T14:35:04;20.50;70.30
20337;DHT22;10326;53.660;10.200;2023-05-10T14:37:33;20.60;70.60
20337;DHT22;10326;53.660;10.200;2023-05-10T14:40:00;20.60;70.30
20337;DHT22;10326;53.660;10.200;2023-05-10T14:42:28;20.60;69.80
20337;DHT22;10326;53.660;10.200;2023-05-10T14:44:55;20.60;69.50
20337;DHT22;10326;53.660;10.200;2023-05-10T14:47:25;20.60;69.60
20337;DHT22;10326;53.660;10.200;2023-05-10T14:49:53;20.60;69.50
20337;DHT22;10326;53.660;10.200;2023-05-10T14:52:22;20.60;69.50
20337;DHT22;10326;53.660;10.200;2023-05-10T14:54:51;20.60;69.60
20337;DHT22;10326;53.660;10.200;2023-05-10T14:57:19;20.60;68.90
20337;DHT22;10326;53.660;10.200;2023-05-10T14:59:46;20.60;69.20
20337;DHT22;10326;53.660;10.200;2023-05-10T15:02:14;20.60;69.50
20337;DHT22;10326;53.660;10.200;2023-05-10T15:04:41;20.60;69.60
20337;DHT22;10326;53.660;10.200;2023-05-10T15:07:09;20.60;70.10
20337;DHT22;10326;53.660;10.200;2023-05-10T15:09:43;20.70;70.20
20337;DHT22;10326;53.660;10.200;2023-05-10T15:12:10;20.70;69.70
20337;DHT22;10326;53.660;10.200;2023-05-10T15:14:37;20.70;69.20
20337;DHT22;10326;53.660;10.200;2023-05-10T15:17:06;20.70;69.30
20337;DHT22;10326;53.660;10.200;2023-05-10T15:19:34;20.70;69.60
20337;DHT22;10326;53.660;10.200;2023-05-10T15:22:01;20.70;69.70
20337;DHT22;10326;53.660;10.200;2023-05-10T15:24:28;20.70;69.50
20337;DHT22;10326;53.660;10.200;2023-05-10T15:26:57;20.70;69.70
20337;DHT22;10326;53.660;10.200;2023-05-10T15:29:25;20.80;69.60